• Join FlightAware (Why Join?)
  • Login
  • US Flag 
07:13PM EDT


 

Airport Tracker/Info


-or-


 

Live Flight TrackerFlight Track Log ✈ N317TT ✈ 15-Apr-2013 ✈ KPBI - KTEB

Flight Track Log - Related Links

Times and Time Zones

All times are in EDT time to prevent confusion due to time zone crossing. See the N317TT flight status page for this flight to view local times or setup timezone preferences in your user account.

Time Position Orientation Groundspeed Altitude Reporting Facility
EDT Latitude Longitude Course Direction KTS MPH feet Rate Location/Type
02:24PM 26.6881 -79.9956 61° Northeast 240 276 4,400  Level Miami Center
02:25PM 26.7350 -79.9433 45° Northeast 228 262 7,800 3,300 Climbing Miami Center
02:26PM 26.7947 -79.8844 41° Northeast 259 298 11,100 2,940 Climbing Miami Center
02:27PM 26.8567 -79.8117 46° Northeast 303 349 13,700 2,100 Climbing Miami Center
02:28PM 26.9169 -79.7222 53° Northeast 335 386 15,400 1,080 Climbing Miami Center
02:29PM 26.9739 -79.6085 55° Northeast  Level FlightAware Approximate
02:29PM 26.9897 -79.6422 44° Northeast 386 444 15,900  Level Miami Center
02:30PM 27.0371 -79.5092 61° Northeast  Level FlightAware Approximate
02:30PM 27.0869 -79.5700 33° Northeast 409 471 16,200  Level Miami Center
02:31PM 27.1928 -79.4931 33° Northeast 419 482 18,700 2,340 Climbing Miami Center
02:32PM 27.2861 -79.4228 34° Northeast 413 475 20,900 1,500 Climbing Miami Center
02:33PM 27.3622 -79.3661 33° Northeast 408 470 21,800 900 Climbing Miami Center
02:34PM 27.4700 -79.2842 34° Northeast 408 470 22,800 600 Climbing Miami Center
02:35PM 27.5717 -79.2067 34° Northeast 420 483 23,000 60 Climbing Miami Center
02:36PM 27.6878 -79.1175 34° Northeast 449 517 23,000 300 Level Miami Center
02:37PM 27.7956 -79.0397 33° Northeast 458 527 23,700 960 Climbing Miami Center
02:38PM 27.9111 -78.9972 18° North 437 503 25,000 900 Climbing Miami Center
02:39PM 28.0367 -78.9714 10° North 446 513 25,600 600 Climbing Miami Center
02:40PM 28.1603 -78.9478 10° North 446 513 26,300 660 Climbing Miami Center
02:41PM 28.2919 -78.9244 North 456 525 27,000 720 Climbing Miami Center
02:42PM 28.4217 -78.9008 North 462 532 27,800 720 Climbing Miami Center
02:43PM 28.5494 -78.8794 North 467 537 28,500 840 Climbing Miami Center
02:44PM 28.6728 -78.8533 11° North 467 537 29,500 900 Climbing Miami Center
02:45PM 28.8047 -78.8319 North 467 537 30,300 1,020 Climbing Miami Center
02:46PM 28.9303 -78.8106 North 460 529 31,600 1,320 Climbing Miami Center
02:47PM 29.0556 -78.7867 North 455 524 33,000 1,380 Climbing Miami Center
02:48PM 29.1728 -78.7650 North 448 516 34,400 1,320 Climbing Miami Center
02:49PM 29.2878 -78.7383 11° North 443 510 35,700 1,140 Climbing Miami Center
02:50PM 29.4008 -78.7117 12° North 431 496 36,700 900 Climbing Miami Center
02:51PM 29.5261 -78.6972 North 431 496 37,500 660 Climbing Miami Center
02:52PM 29.6494 -78.6753 North 431 496 38,100 480 Climbing Miami Center
02:54PM 29.8303 -78.6383 10° North 473 544 38,900 480 Climbing Jacksonville Center
02:55PM 29.9567 -78.6089 11° North 438 504 39,400 480 Climbing Jacksonville Center
02:56PM 30.0769 -78.5844 10° North 433 498 39,900 540 Climbing Jacksonville Center
02:57PM 30.2014 -78.5644 North 433 498 40,500 540 Climbing Jacksonville Center
02:58PM 30.3217 -78.5397 10° North 438 504 41,000 240 Climbing Jacksonville Center
02:59PM 30.4461 -78.5172 North 442 509 41,000  Level Jacksonville Center
03:00PM 30.5625 -78.4997 North 443 510 41,000  Level Jacksonville Center
03:01PM 30.6828 -78.4797 North 432 497 41,000  Level Jacksonville Center
03:02PM 30.8072 -78.4594 North 447 514 41,000  Level Jacksonville Center
03:03PM 30.9317 -78.4367 North 449 517 41,000  Level Jacksonville Center
03:04PM 31.0439 -78.4217 North 444 511 41,000  Level Jacksonville Center
03:05PM 31.1642 -78.4014 North 444 511 41,000  Level Jacksonville Center
03:06PM 31.2889 -78.3808 North 444 511 41,000  Level Jacksonville Center
03:07PM 31.4111 -78.3603 North 444 511 41,000  Level Jacksonville Center
03:08PM 31.5358 -78.3397 North 444 511 41,000  Level Jacksonville Center
03:09PM 31.6581 -78.3189 North 444 511 41,000  Level Jacksonville Center
03:10PM 31.7783 -78.2983 North 444 511 41,000  Level Jacksonville Center
03:11PM 31.9008 -78.2775 North 444 511 41,000  Level Jacksonville Center
03:12PM 32.0214 -78.2594 North 444 511 41,000  Level Jacksonville Center
03:13PM 32.1456 -78.2333 10° North 444 511 41,000  Level Jacksonville Center
03:14PM 32.2678 -78.2100 North 444 511 41,000  Level Jacksonville Center
03:15PM 32.3906 -78.1964 North 444 511 41,000  Level Jacksonville Center
03:16PM 32.5108 -78.1753 North 438 504 41,000  Level Jacksonville Center
03:17PM 32.6353 -78.1542 North 438 504 41,000  Level Jacksonville Center
03:18PM 32.7578 -78.1378 North 443 510 41,000  Level Jacksonville Center
03:20PM 33.0275 -78.0928 North 443 510 41,000  Level Washington Center
03:21PM 33.1489 -78.0739 North 443 510 41,000  Level Washington Center
03:22PM 33.2725 -78.0553 North 451 519 41,000  Level Washington Center
03:23PM 33.3958 -78.0342 North 446 513 41,000  Level Washington Center
03:24PM 33.5172 -78.0150 North 446 513 41,000  Level Washington Center
03:25PM 33.6386 -77.9936 North 446 513 41,000  Level Washington Center
03:26PM 33.7497 -77.9769 North 451 519 41,000  Level Washington Center
03:27PM 33.8583 -77.9600 North 445 512 41,000  Level Washington Center
03:28PM 33.9967 -77.9339 North 450 518 41,000  Level Washington Center
03:29PM 34.1181 -77.9147 North 444 511 41,000  Level Washington Center
03:30PM 34.2372 -77.8956 North 444 511 41,000  Level Washington Center
03:31PM 34.3753 -77.8742 North 449 517 41,000  Level Washington Center
03:32PM 34.4944 -77.8725 North 439 505 41,000  Level Washington Center
03:33PM 34.6111 -77.8758 359° North 428 493 41,000  Level Washington Center
03:34PM 34.7303 -77.8714 North 418 481 41,000  Level Washington Center
03:35PM 34.8469 -77.8672 North 418 481 41,000  Level Washington Center
03:36PM 34.9661 -77.8656 North 423 487 41,000  Level Washington Center
03:37PM 35.0869 -77.8664 360° North 423 487 41,000  Level Washington Center
03:38PM 35.2081 -77.8647 North 423 487 41,000  Level Washington Center
03:39PM 35.3314 -77.8606 North 423 487 41,000  Level Washington Center
03:40PM 35.4544 -77.8589 North 428 493 41,000  Level Washington Center
03:41PM 35.5781 -77.8342 North 434 499 41,000  Level Washington Center
03:42PM 35.6997 -77.7892 17° North 447 514 41,000  Level Washington Center
03:43PM 35.8236 -77.7489 15° North 454 522 41,000  Level Washington Center
03:44PM 35.9475 -77.7089 15° North 454 522 41,000  Level Washington Center
03:45PM 36.0733 -77.6683 15° North 459 528 41,000  Level Washington Center
03:46PM 36.1953 -77.6253 16° North 454 522 41,000  Level Washington Center
03:47PM 36.3167 -77.5872 14° North 448 516 41,000  Level Washington Center
03:48PM 36.4344 -77.5436 17° North 448 516 41,000  Level Washington Center
03:49PM 36.5539 -77.5028 15° North 441 507 41,000  Level Washington Center
03:50PM 36.6756 -77.4617 15° North 436 502 41,000  Level Washington Center
03:51PM 36.7950 -77.4231 15° North 436 502 41,000  Level Washington Center
03:52PM 36.9042 -77.3814 17° North 441 507 41,000  Level Washington Center
03:53PM 37.0236 -77.3400 15° North 441 507 41,000  Level Washington Center
03:54PM 37.1453 -77.3011 14° North 441 507 41,000  Level Washington Center
03:55PM 37.2647 -77.2619 15° North 436 502 41,000  Level Washington Center
03:56PM 37.3989 -77.2153 15° North 436 502 41,000  Level Washington Center
03:57PM 37.5247 -77.1708 16° North 446 513 41,000  Level Washington Center
03:58PM 37.6442 -77.1261 17° North 446 513 41,000  Level Washington Center
03:59PM 37.7656 -77.0814 16° North 446 513 41,000  Level Washington Center
04:00PM 37.8892 -77.0389 15° North 446 513 41,000  Level Washington Center
04:01PM 38.0106 -76.9964 15° North 446 513 41,000  Level Washington Center
04:02PM 38.1300 -76.9539 16° North 446 513 41,000 -600 Level Washington Center
04:03PM 38.2472 -76.9111 16° North 446 513 39,900 -1,200 Descending Washington Center
04:04PM 38.3686 -76.8681 16° North 441 507 38,600 -1,440 Descending Washington Center
04:05PM 38.4839 -76.8278 15° North 436 502 37,100 -1,500 Descending Washington Center
04:06PM 38.6011 -76.7844 16° North 436 502 35,600 -1,500 Descending Washington Center
04:07PM 38.7119 -76.7303 21° North 436 502 34,100 -2,460 Descending Washington Center
04:08PM 38.8067 -76.6278 40° Northeast 429 494 30,700 -3,120 Descending Washington Center
04:09PM 38.8847 -76.5411 41° Northeast 440 506 27,900 -3,240 Descending Washington Center
04:10PM 38.9961 -76.4117 42° Northeast 445 512 24,300 -1,980 Descending Washington Center
04:11PM 39.0800 -76.3136 42° Northeast 429 494 24,000 -180 Descending Washington Center
04:12PM 39.1722 -76.2100 41° Northeast 423 487 24,000  Level Washington Center
04:13PM 39.2686 -76.0956 43° Northeast 436 502 24,000  Level Washington Center
04:14PM 39.3692 -75.9997 36° Northeast 450 518 24,000 -900 Level Washington Center
04:14PM 39.3928 -75.9742 40° Northeast 447 514 22,900 -3,000 Descending FAA TRACON SMA TRACON (SMA)
04:15PM 39.4278 -75.9419 35° Northeast 445 512 22,200 -2,280 Descending FAA TRACON SMA TRACON (SMA)
04:15PM 39.4642 -75.9103 34° Northeast 446 513 21,400 -2,400 Descending FAA TRACON SMA TRACON (SMA)
04:15PM 39.4900 -75.8858 36° Northeast 445 512 20,600 -2,700 Descending FAA TRACON SMA TRACON (SMA)
04:16PM 39.5294 -75.8467 37° Northeast 438 504 19,600 -2,700 Descending FAA TRACON SMA TRACON (SMA)
04:16PM 39.5594 -75.8172 37° Northeast 421 484 18,800 -2,700 Descending FAA TRACON SMA TRACON (SMA)
04:16PM 39.5933 -75.7842 37° Northeast 406 467 17,800 -2,280 Descending FAA TRACON SMA TRACON (SMA)
04:17PM 39.6228 -75.7569 35° Northeast 408 470 17,300 -1,980 Descending FAA TRACON SMA TRACON (SMA)
04:17PM 39.6514 -75.7314 35° Northeast 406 467 16,500 -2,640 Descending FAA TRACON SMA TRACON (SMA)
04:18PM 39.7147 -75.6744 35° Northeast 399 459 14,700 -1,920 Descending FAA TRACON SMA TRACON (SMA)
04:18PM 39.7394 -75.6522 35° Northeast 348 400 14,600 -780 Descending FAA TRACON SMA TRACON (SMA)
04:18PM 39.7656 -75.6308 32° Northeast 348 400 14,200 -1,320 Descending FAA TRACON SMA TRACON (SMA)
04:19PM 39.7953 -75.6053 33° Northeast 337 388 13,700 -1,080 Descending FAA TRACON SMA TRACON (SMA)
04:19PM 39.8183 -75.5844 35° Northeast 326 375 13,500 -480 Descending FAA TRACON SMA TRACON (SMA)
04:19PM 39.8411 -75.5639 35° Northeast 324 373 13,400 -300 Descending FAA TRACON SMA TRACON (SMA)
04:20PM 39.8636 -75.5414 38° Northeast 330 380 13,300 -300 Descending FAA TRACON SMA TRACON (SMA)
04:20PM 39.8925 -75.5122 38° Northeast 336 387 13,200 -300 Descending FAA TRACON SMA TRACON (SMA)
04:20PM 39.9136 -75.4919 36° Northeast 341 392 13,100 -300 Descending FAA TRACON SMA TRACON (SMA)
04:21PM 39.9436 -75.4619 37° Northeast 347 399 13,000 -180 Descending FAA TRACON SMA TRACON (SMA)
04:21PM 39.9708 -75.4375 35° Northeast 347 399 13,000  Level FAA TRACON SMA TRACON (SMA)
04:21PM 39.9936 -75.4172 34° Northeast 346 398 13,000 120 Level FAA TRACON SMA TRACON (SMA)
04:22PM 40.0200 -75.3928 35° Northeast 348 400 13,100  Climbing FAA TRACON SMA TRACON (SMA)
04:22PM 40.0514 -75.3644 35° Northeast 350 403 13,000 -180 Descending FAA TRACON SMA TRACON (SMA)
04:22PM 40.0753 -75.3408 37° Northeast 350 403 13,000 120 Level FAA TRACON SMA TRACON (SMA)
04:23PM 40.0997 -75.3192 34° Northeast 345 397 13,100  Climbing FAA TRACON SMA TRACON (SMA)
04:23PM 40.1289 -75.2917 36° Northeast 338 389 13,000 -300 Descending FAA TRACON SMA TRACON (SMA)
04:23PM 40.1503 -75.2722 35° Northeast 335 386 12,900 -780 Descending FAA TRACON SMA TRACON (SMA)
04:24PM 40.1742 -75.2506 35° Northeast 332 382 12,500 -1,500 Descending FAA TRACON SMA TRACON (SMA)
04:24PM 40.2036 -75.2217 37° Northeast 329 379 11,900 -1,680 Descending FAA TRACON SMA TRACON (SMA)
04:24PM 40.2264 -75.2008 35° Northeast 324 373 11,400 -1,200 Descending FAA TRACON SMA TRACON (SMA)
04:25PM 40.2489 -75.1800 35° Northeast 321 369 11,100 -600 Descending FAA TRACON SMA TRACON (SMA)
04:25PM 40.2744 -75.1564 35° Northeast 292 336 11,000 -300 Descending FAA TRACON SMA TRACON (SMA)
04:25PM 40.2939 -75.1383 35° Northeast 290 334 10,900 -780 Descending FAA TRACON SMA TRACON (SMA)
04:26PM 40.3150 -75.1194 34° Northeast 292 336 10,500 -1,980 Descending FAA TRACON SMA TRACON (SMA)
04:26PM 40.3381 -75.0872 47° Northeast 314 361 9,600 -2,400 Descending FAA TRACON SMA TRACON (SMA)
04:26PM 40.3564 -75.0614 47° Northeast 314 361 8,900 -2,280 Descending FAA TRACON SMA TRACON (SMA)
04:27PM 40.3744 -75.0358 47° Northeast 312 359 8,100 -2,280 Descending FAA TRACON SMA TRACON (SMA)
04:27PM 40.3969 -75.0044 47° Northeast 309 356 7,400 -1,500 Descending FAA TRACON SMA TRACON (SMA)
04:27PM 40.4133 -74.9800 49° Northeast 301 346 7,100 -780 Descending FAA TRACON SMA TRACON (SMA)
04:28PM 40.4294 -74.9578 46° Northeast 272 313 6,900 -1,080 Descending FAA TRACON SMA TRACON (SMA)
04:28PM 40.4492 -74.9300 47° Northeast 268 308 6,400 -1,500 Descending FAA TRACON SMA TRACON (SMA)
04:28PM 40.4653 -74.9081 46° Northeast 271 312 5,900 -1,500 Descending FAA TRACON SMA TRACON (SMA)
04:29PM 40.4817 -74.8847 47° Northeast 278 320 5,400 -1,680 Descending FAA TRACON SMA TRACON (SMA)
04:29PM 40.5031 -74.8578 44° Northeast 287 330 4,800 -1,380 Descending FAA TRACON SMA TRACON (SMA)
04:29PM 40.5203 -74.8303 51° Northeast 294 338 4,500 -840 Descending FAA TRACON SMA TRACON (SMA)
04:30PM 40.5333 -74.8167 38° Northeast 294 338 4,300 -420 Descending New York TRACON
04:31PM 40.6000 -74.7500 37° Northeast 271 312 4,000 -180 Descending New York TRACON
04:32PM 40.6500 -74.7000 37° Northeast 267 307 4,000  Level New York TRACON
04:32PM 40.7167 -74.6333 37° Northeast 268 308 4,000  Level New York TRACON
04:34PM 40.7833 -74.5833 30° Northeast 270 311 4,100  Climbing New York TRACON
04:35PM 40.8500 -74.5333 30° Northeast 270 311 4,000 -300 Descending New York TRACON
04:36PM 40.9167 -74.5000 21° North 258 297 3,500 -480 Descending New York TRACON
04:37PM 40.9667 -74.4500 37° Northeast 239 275 3,100 -240 Descending New York TRACON
04:38PM 41.0167 -74.4000 37° Northeast 218 251 3,100  Level New York TRACON
04:39PM 41.0500 -74.3333 56° Northeast 215 247 3,100  Level New York TRACON
04:40PM 41.0667 -74.2500 75° East 216 249 3,100 -60 Level New York TRACON
04:41PM 41.0667 -74.1833 90° East 212 244 3,000 -180 Descending New York TRACON
04:42PM 41.0500 -74.1167 108° East 182 209 2,800 -360 Descending New York TRACON
04:43PM 41.0333 -74.0667 114° Southeast 160 184 2,300 -420 Descending New York TRACON
04:44PM 40.9833 -74.0500 166° South 154 177 2,000 -240 Descending New York TRACON
04:45PM 40.9500 -74.0500 180° South 152 175 1,900 -480 Descending New York TRACON
04:46PM 40.9000 -74.0500 180° South 147 169 1,100 -840 Descending New York TRACON